Time;durP1;ratioP1;P1;durP2;ratioP2;P2;SDS_P1;SDS_P2;PMS_P1;PMS_P2;Temp;Humidity;BMP_temperature;BMP_pressure;BME280_temperature;BME280_humidity;BME280_pressure;Samples;Min_cycle;Max_cycle;Signal;HPM_P1;HPM_P2
2022/03/16 00:02:19;;;;;;;13.53;7.63;;;;;;;-0.72;66.04;103215.09;5073496;28;20255;-64
2022/03/16 00:04:53;;;;;;;9.90;6.90;;;;;;;-0.70;65.79;103219.41;5092095;28;20290;-64
2022/03/16 00:07:19;;;;;;;9.93;7.03;;;;;;;-0.76;65.20;103214.31;5092283;28;20268;-64
2022/03/16 00:09:46;;;;;;;11.37;7.17;;;;;;;-0.76;66.12;103213.44;5094500;28;20250;-65
2022/03/16 00:12:13;;;;;;;11.77;6.13;;;;;;;-0.81;65.22;103202.22;5076507;28;20297;-65
2022/03/16 00:14:40;;;;;;;8.43;5.23;;;;;;;-0.81;65.27;103210.91;5095605;28;20270;-65
2022/03/16 00:17:06;;;;;;;8.83;5.70;;;;;;;-0.78;65.43;103225.69;5096983;28;20287;-64
2022/03/16 00:19:33;;;;;;;9.70;6.10;;;;;;;-0.89;65.70;103204.09;5080098;28;20261;-65
2022/03/16 00:22:00;;;;;;;12.13;6.27;;;;;;;-1.01;64.73;103195.59;5079153;28;20323;-64
2022/03/16 00:24:25;;;;;;;10.77;4.90;;;;;;;-0.83;65.12;103220.56;5095511;28;20259;-64
2022/03/16 00:26:51;;;;;;;12.87;5.57;;;;;;;-0.98;65.02;103195.53;5095362;28;20298;-65
2022/03/16 00:29:17;;;;;;;11.27;6.00;;;;;;;-0.94;65.10;103199.81;5095442;28;20024;-64
2022/03/16 00:31:42;;;;;;;8.13;5.07;;;;;;;-0.94;64.98;103199.81;5076869;28;20028;-65
2022/03/16 00:34:33;;;;;;;7.53;5.50;;;;;;;-1.26;65.25;103150.72;5095367;28;20043;-65
2022/03/16 00:36:59;;;;;;;12.33;5.30;;;;;;;-1.02;64.40;103201.72;5095369;28;20254;-64
2022/03/16 00:39:24;;;;;;;8.83;4.57;;;;;;;-1.06;64.44;103194.81;5076858;28;20024;-63
2022/03/16 00:41:50;;;;;;;8.17;4.53;;;;;;;-0.94;65.42;103219.88;5095325;28;20371;-64
2022/03/16 00:44:15;;;;;;;9.20;5.43;;;;;;;-1.10;64.52;103201.00;5076693;28;20043;-63
2022/03/16 00:46:41;;;;;;;7.90;5.10;;;;;;;-0.96;64.90;103221.66;5094878;28;20054;-64
2022/03/16 00:49:07;;;;;;;9.03;5.27;;;;;;;-0.97;65.19;103215.56;5095083;28;20028;-65
2022/03/16 00:51:33;;;;;;;7.90;5.50;;;;;;;-0.98;64.73;103219.06;5094876;28;20028;-64
2022/03/16 00:53:58;;;;;;;10.93;5.27;;;;;;;-1.16;64.42;103187.16;5095251;28;20086;-64
2022/03/16 00:56:24;;;;;;;8.13;5.03;;;;;;;-0.99;64.43;103217.34;5094533;28;20067;-66
2022/03/16 00:58:50;;;;;;;7.47;4.77;;;;;;;-1.11;63.76;103214.09;5094386;28;20028;-65
2022/03/16 01:01:15;;;;;;;11.40;5.80;;;;;;;-1.26;63.62;103192.56;5094636;28;20266;-65
2022/03/16 01:03:41;;;;;;;10.50;6.13;;;;;;;-1.10;64.20;103229.78;5097503;28;20028;-63
2022/03/16 01:06:15;;;;;;;9.43;5.27;;;;;;;-1.21;63.78;103212.53;5094582;28;20031;-65
2022/03/16 01:08:42;;;;;;;8.83;4.80;;;;;;;-1.21;63.49;103216.00;5094986;28;20028;-64
2022/03/16 01:11:08;;;;;;;7.90;5.23;;;;;;;-1.15;64.22;103226.38;5094393;28;20262;-64
2022/03/16 01:13:36;;;;;;;10.20;5.40;;;;;;;-1.26;64.25;103215.22;5094086;28;20676;-63
2022/03/16 01:16:01;;;;;;;10.33;5.40;;;;;;;-1.21;63.83;103236.91;5094544;28;20071;-64
2022/03/16 01:18:27;;;;;;;8.40;4.90;;;;;;;-1.34;63.76;103219.72;5094617;28;20282;-63
2022/03/16 01:20:52;;;;;;;7.90;4.83;;;;;;;-1.54;64.28;103187.84;5076357;28;20430;-63
2022/03/16 01:23:18;;;;;;;9.30;5.63;;;;;;;-1.23;64.15;103238.69;5094063;28;20032;-65
2022/03/16 01:25:43;;;;;;;8.87;4.73;;;;;;;-1.30;63.93;103226.63;5075859;28;20024;-65
2022/03/16 01:28:09;;;;;;;9.37;6.03;;;;;;;-1.29;64.26;103223.13;5094809;28;20035;-65
2022/03/16 01:30:34;;;;;;;7.50;4.77;;;;;;;-1.33;64.34;103226.69;5094056;28;20027;-65
2022/03/16 01:33:00;;;;;;;10.07;4.90;;;;;;;-1.30;63.74;103237.09;5094187;28;20100;-63
2022/03/16 01:35:27;;;;;;;9.47;6.30;;;;;;;-1.43;64.21;103225.13;5094274;28;20024;-64
2022/03/16 01:37:52;;;;;;;10.07;5.00;;;;;;;-1.35;64.24;103245.00;5094173;28;20254;-64
2022/03/16 01:40:18;;;;;;;9.07;5.03;;;;;;;-1.38;64.72;103239.84;5093938;28;20028;-64
2022/03/16 01:42:43;;;;;;;9.40;5.53;;;;;;;-1.40;64.51;103238.13;5093654;28;20099;-65
2022/03/16 01:45:09;;;;;;;10.80;5.37;;;;;;;-1.45;64.20;103229.47;5076171;28;20463;-65
2022/03/16 01:47:35;;;;;;;7.80;5.17;;;;;;;-1.42;63.19;103242.53;5094356;28;20097;-66
2022/03/16 01:50:00;;;;;;;11.27;5.73;;;;;;;-1.55;64.22;103226.16;5094122;28;20254;-64
2022/03/16 01:52:28;;;;;;;7.80;5.37;;;;;;;-1.54;63.73;103227.91;5093530;28;20038;-64
2022/03/16 01:54:54;;;;;;;9.97;5.53;;;;;;;-1.55;64.10;103231.41;5075537;28;20036;-64
2022/03/16 01:57:20;;;;;;;9.67;4.87;;;;;;;-1.62;63.79;103229.78;5093690;28;20254;-64
2022/03/16 01:59:47;;;;;;;8.87;4.40;;;;;;;-1.59;63.89;103235.81;5093389;28;20748;-64
2022/03/16 02:02:13;;;;;;;6.80;4.40;;;;;;;-1.64;64.26;103218.50;5093399;28;20278;-63
2022/03/16 02:04:39;;;;;;;10.53;5.10;;;;;;;-1.52;63.62;103240.94;5094766;28;20755;-64
2022/03/16 02:07:05;;;;;;;10.43;6.00;;;;;;;-1.69;63.35;103217.69;5075324;28;20258;-63
2022/03/16 02:09:32;;;;;;;8.80;6.23;;;;;;;-1.66;63.90;103236.81;5093491;28;20262;-64
2022/03/16 02:11:57;;;;;;;11.20;5.70;;;;;;;-1.61;64.20;103253.28;5075176;28;20669;-64
2022/03/16 02:14:23;;;;;;;11.00;5.30;;;;;;;-1.65;63.14;103246.38;5093575;28;20310;-64
2022/03/16 02:16:49;;;;;;;9.77;5.33;;;;;;;-1.60;63.64;103255.00;5093441;28;20274;-65
2022/03/16 02:19:16;;;;;;;12.03;5.07;;;;;;;-1.89;63.68;103207.56;5093216;28;20118;-64
2022/03/16 02:21:45;;;;;;;7.47;4.67;;;;;;;-1.63;63.96;103255.03;5093052;28;20842;-66
2022/03/16 02:24:11;;;;;;;11.93;7.57;;;;;;;-1.70;63.54;103237.75;5092953;28;20307;-65
2022/03/16 02:26:37;;;;;;;8.33;5.87;;;;;;;-1.61;63.73;103253.28;5093049;28;20266;-64
2022/03/16 02:29:03;;;;;;;11.87;6.50;;;;;;;-1.67;63.49;103244.66;5092865;28;20459;-63
2022/03/16 02:31:28;;;;;;;10.67;6.20;;;;;;;-1.87;64.08;103218.84;5092895;28;20477;-66
2022/03/16 02:33:54;;;;;;;16.17;8.13;;;;;;;-1.69;63.91;103257.75;5073865;28;20049;-62
2022/03/16 02:36:20;;;;;;;10.57;5.57;;;;;;;-1.73;63.61;103248.25;5092829;28;20032;-64
2022/03/16 02:38:46;;;;;;;11.13;5.10;;;;;;;-1.98;63.87;103216.38;5092685;28;20024;-64
2022/03/16 02:41:12;;;;;;;8.73;6.03;;;;;;;-1.84;64.34;103242.28;5074565;28;20402;-63
2022/03/16 02:43:38;;;;;;;11.17;5.87;;;;;;;-1.81;63.60;103250.09;5092798;28;20314;-64
2022/03/16 02:46:05;;;;;;;20.07;7.53;;;;;;;-2.03;63.61;103206.88;5092702;28;20032;-64
2022/03/16 02:48:31;;;;;;;15.00;7.50;;;;;;;-1.88;64.04;103232.78;5092697;28;20030;-64
2022/03/16 02:50:57;;;;;;;14.27;6.90;;;;;;;-1.82;64.22;103248.34;5074450;28;20636;-65
2022/03/16 02:53:23;;;;;;;14.03;7.63;;;;;;;-1.87;64.83;103234.50;5092335;28;20051;-65
2022/03/16 02:55:49;;;;;;;15.73;7.70;;;;;;;-1.84;64.72;103239.69;5092561;28;20250;-66
2022/03/16 02:58:16;;;;;;;14.20;6.70;;;;;;;-1.87;64.24;103247.56;5092679;28;20252;-65
2022/03/16 03:00:42;;;;;;;20.37;7.40;;;;;;;-1.88;64.03;103246.69;5092963;28;20024;-66
2022/03/16 03:03:08;;;;;;;15.83;7.27;;;;;;;-1.98;64.77;103236.41;5095613;28;20261;-64
2022/03/16 03:05:34;;;;;;;15.90;7.97;;;;;;;-1.85;63.88;103273.66;5093611;28;20782;-64
2022/03/16 03:07:59;;;;;;;18.00;8.50;;;;;;;-1.91;64.38;103270.25;5094238;28;20482;-64
2022/03/16 03:10:26;;;;;;;16.80;7.33;;;;;;;-1.83;64.22;103291.03;5092438;28;20110;-65
2022/03/16 03:12:51;;;;;;;12.17;6.87;;;;;;;-1.90;64.46;103277.22;5091775;28;20044;-65
2022/03/16 03:15:18;;;;;;;12.90;6.60;;;;;;;-1.87;64.25;103286.75;5092294;28;20281;-65
2022/03/16 03:17:44;;;;;;;16.97;5.53;;;;;;;-2.08;64.20;103246.09;5092256;28;20032;-65
2022/03/16 03:20:11;;;;;;;10.97;5.77;;;;;;;-1.93;64.95;103269.41;5074133;28;20277;-65
2022/03/16 03:22:37;;;;;;;11.80;6.30;;;;;;;-1.83;64.19;103282.34;5092106;28;20718;-64
2022/03/16 03:25:04;;;;;;;10.87;6.00;;;;;;;-2.09;64.49;103256.56;5092507;28;20262;-65
2022/03/16 03:27:30;;;;;;;9.50;6.33;;;;;;;-1.96;63.63;103276.44;5093092;28;20027;-67
2022/03/16 03:29:56;;;;;;;14.00;6.67;;;;;;;-2.00;63.77;103280.84;5084972;28;20274;-68
2022/03/16 03:32:22;;;;;;;14.13;5.97;;;;;;;-2.00;63.68;103290.41;5073614;28;20352;-64
2022/03/16 03:34:50;;;;;;;12.97;7.53;;;;;;;-2.02;64.27;103292.19;5070960;28;20113;-65
2022/03/16 03:37:16;;;;;;;10.00;5.90;;;;;;;-2.08;64.09;103287.88;5053829;28;20032;-67
2022/03/16 03:39:42;;;;;;;12.43;6.63;;;;;;;-2.10;64.37;103283.56;5053333;28;20034;-64
2022/03/16 03:42:08;;;;;;;16.20;7.97;;;;;;;-2.14;63.66;103282.75;5084075;28;20059;-64
2022/03/16 03:44:37;;;;;;;10.53;6.47;;;;;;;-2.06;64.67;103295.69;5074185;28;20320;-63
2022/03/16 03:47:04;;;;;;;10.85;5.97;;;;;;;-2.15;63.61;103285.38;5093983;28;20032;-64
2022/03/16 03:49:32;;;;;;;15.07;5.53;;;;;;;-2.19;64.58;103281.94;5076320;28;20558;-64
2022/03/16 03:52:00;;;;;;;13.73;5.67;;;;;;;-2.32;63.95;103270.78;5079234;28;20269;-63
2022/03/16 03:54:26;;;;;;;13.97;5.53;;;;;;;-2.20;64.49;103299.34;5077893;28;20263;-64
2022/03/16 03:56:52;;;;;;;8.63;5.03;;;;;;;-2.21;64.66;103297.63;5088684;28;20449;-64
2022/03/16 03:59:18;;;;;;;8.90;6.33;;;;;;;-2.20;64.98;103304.59;5095964;28;20028;-64
2022/03/16 04:01:43;;;;;;;11.07;6.17;;;;;;;-2.21;63.94;103305.47;5095731;28;20258;-65
2022/03/16 04:04:09;;;;;;;10.83;5.70;;;;;;;-2.24;64.21;103292.44;5095663;28;20028;-64
2022/03/16 04:06:35;;;;;;;16.80;6.90;;;;;;;-2.11;64.11;103323.63;5095894;28;20588;-64
2022/03/16 04:09:00;;;;;;;11.17;5.50;;;;;;;-2.28;64.54;103300.34;5095674;28;20375;-64
2022/03/16 04:11:26;;;;;;;12.10;6.17;;;;;;;-2.42;63.42;103277.00;5095552;28;20032;-65
2022/03/16 04:13:53;;;;;;;13.20;5.77;;;;;;;-2.27;64.11;103323.81;5095258;28;20079;-63
2022/03/16 04:16:18;;;;;;;23.50;7.40;;;;;;;-2.26;64.11;103330.75;5095281;28;20028;-65
2022/03/16 04:18:44;;;;;;;24.97;6.70;;;;;;;-2.26;64.09;103322.06;5095206;28;20265;-70
2022/03/16 04:21:09;;;;;;;12.40;6.03;;;;;;;-2.41;64.39;103299.59;5077250;28;20031;-64
2022/03/16 04:23:35;;;;;;;21.93;5.97;;;;;;;-2.27;63.89;103321.22;5095624;28;20463;-68
2022/03/16 04:26:00;;;;;;;11.07;5.80;;;;;;;-2.47;64.09;103293.59;5076908;28;20106;-67
2022/03/16 04:28:26;;;;;;;12.90;6.43;;;;;;;-2.30;63.82;103328.22;5076967;28;20028;-67
2022/03/16 04:30:52;;;;;;;10.37;5.57;;;;;;;-2.33;64.30;103326.47;5095003;28;20156;-66
2022/03/16 04:33:17;;;;;;;12.80;5.40;;;;;;;-2.38;64.22;103316.97;5098389;28;20293;-67
2022/03/16 04:35:43;;;;;;;17.03;6.87;;;;;;;-2.48;63.82;103307.53;5096388;28;20081;-62
2022/03/16 04:38:10;;;;;;;14.60;6.90;;;;;;;-2.42;64.10;103308.31;5095325;28;20032;-65
2022/03/16 04:40:36;;;;;;;9.47;6.10;;;;;;;-2.29;64.40;103330.81;5085043;28;20289;-67
2022/03/16 04:43:02;;;;;;;19.10;6.47;;;;;;;-2.36;63.90;103318.69;5074595;28;20534;-63
2022/03/16 04:45:27;;;;;;;14.20;7.10;;;;;;;-2.27;63.69;103336.00;5086893;28;20273;-62
2022/03/16 04:47:53;;;;;;;13.37;6.33;;;;;;;-2.27;63.17;103329.03;5093318;28;20533;-70
2022/03/16 04:50:18;;;;;;;14.93;6.07;;;;;;;-2.31;63.48;103329.09;5095033;28;20024;-65
2022/03/16 04:52:45;;;;;;;11.37;5.90;;;;;;;-2.22;63.12;103348.13;5095704;28;20031;-64
2022/03/16 04:55:12;;;;;;;10.27;6.93;;;;;;;-2.46;63.45;103293.59;5095294;28;20032;-65
2022/03/16 04:57:37;;;;;;;20.33;7.97;;;;;;;-2.49;62.79;103280.56;5093708;28;20035;-65
2022/03/16 05:00:04;;;;;;;14.40;6.37;;;;;;;-2.17;62.93;103339.38;5094350;28;20258;-65
2022/03/16 05:02:29;;;;;;;13.83;6.70;;;;;;;-2.26;62.67;103335.13;5094402;28;20450;-66
2022/03/16 05:04:55;;;;;;;14.07;8.27;;;;;;;-2.12;63.13;103353.22;5094358;28;20341;-65
2022/03/16 05:07:20;;;;;;;12.03;6.13;;;;;;;-2.07;62.45;103351.41;5059788;28;20028;-67
2022/03/16 05:09:46;;;;;;;16.23;5.93;;;;;;;-2.13;62.16;103341.06;5059563;28;20032;-63
2022/03/16 05:12:12;;;;;;;15.03;5.53;;;;;;;-2.22;62.86;103315.94;5093927;28;20028;-67
2022/03/16 05:14:41;;;;;;;11.60;5.88;;;;;;;-2.34;62.73;103290.81;5094339;28;20498;-65
2022/03/16 05:17:07;;;;;;;22.20;5.67;;;;;;;-2.16;62.52;103320.22;5094388;28;20028;-65
2022/03/16 05:19:32;;;;;;;16.47;6.37;;;;;;;-2.26;62.13;103304.66;5075950;28;20035;-64
2022/03/16 05:21:58;;;;;;;26.70;7.07;;;;;;;-2.02;61.09;103354.88;5093986;28;20081;-64
2022/03/16 05:24:24;;;;;;;12.03;6.90;;;;;;;-2.12;62.11;103334.94;5094258;28;20032;-64
2022/03/16 05:26:52;;;;;;;15.13;5.97;;;;;;;-1.98;62.02;103343.50;5094117;28;20020;-66
2022/03/16 05:29:18;;;;;;;9.98;6.15;;;;;;;-1.91;61.68;103358.19;5093842;28;20024;-64
2022/03/16 05:31:44;;;;;;;45.83;9.70;;;;;;;-1.87;60.92;103355.53;5074840;28;20035;-69
2022/03/16 05:34:09;;;;;;;13.97;7.07;;;;;;;-1.80;60.93;103374.59;5093717;28;20455;-66
2022/03/16 05:36:35;;;;;;;11.83;6.53;;;;;;;-1.90;60.98;103350.34;5093916;28;20040;-69
2022/03/16 05:39:26;;;;;;;27.98;8.00;;;;;;;-1.77;60.74;103371.06;5094102;28;20043;-68
2022/03/16 05:41:51;;;;;;;31.73;7.50;;;;;;;-1.76;60.57;103370.19;5093568;28;20036;-65
2022/03/16 05:44:17;;;;;;;18.17;7.37;;;;;;;-1.75;60.89;103369.28;5093649;28;20103;-63
2022/03/16 05:46:43;;;;;;;15.40;8.80;;;;;;;-1.66;60.93;103380.50;5075799;28;20470;-65
2022/03/16 05:49:08;;;;;;;12.77;6.80;;;;;;;-1.77;59.92;103366.69;5093683;28;20038;-63
2022/03/16 05:51:33;;;;;;;16.07;5.40;;;;;;;-1.65;60.51;103373.53;5093619;28;20043;-64
2022/03/16 05:53:59;;;;;;;24.53;5.77;;;;;;;-1.73;60.17;103347.53;5093880;28;20036;-68
2022/03/16 05:56:25;;;;;;;18.73;6.17;;;;;;;-1.52;59.79;103371.59;5093720;28;20039;-66
2022/03/16 05:58:50;;;;;;;12.67;5.50;;;;;;;-1.47;59.79;103369.78;5058578;28;20032;-63
2022/03/16 06:01:16;;;;;;;24.00;5.60;;;;;;;-1.56;59.38;103360.34;5093416;28;20116;-64
2022/03/16 06:03:41;;;;;;;18.00;7.33;;;;;;;-1.45;59.58;103381.09;5091384;28;20032;-64
2022/03/16 06:06:07;;;;;;;24.60;6.37;;;;;;;-1.50;59.08;103380.28;5072078;28;20552;-66
2022/03/16 06:08:32;;;;;;;17.97;5.73;;;;;;;-1.46;58.79;103387.19;5066485;28;20029;-65
2022/03/16 06:10:57;;;;;;;10.93;5.53;;;;;;;-1.43;58.59;103388.03;5072945;28;20063;-65
2022/03/16 06:13:25;;;;;;;19.20;6.00;;;;;;;-1.30;59.05;103393.94;5086812;28;20048;-66
2022/03/16 06:15:51;;;;;;;25.57;7.03;;;;;;;-1.25;58.99;103386.91;5093154;28;20036;-67
2022/03/16 06:18:16;;;;;;;20.87;6.10;;;;;;;-1.20;58.45;103390.31;5089626;28;20330;-69
2022/03/16 06:20:42;;;;;;;17.33;5.77;;;;;;;-1.10;58.73;103401.50;5074232;28;20042;-66
2022/03/16 06:23:08;;;;;;;20.07;6.30;;;;;;;-1.06;59.43;103401.44;5072846;28;20111;-66
2022/03/16 06:25:34;;;;;;;20.03;7.07;;;;;;;-0.90;59.08;103402.03;5081828;28;20024;-67
2022/03/16 06:28:00;;;;;;;14.23;6.03;;;;;;;-0.79;58.41;103401.88;5074424;28;20270;-65
2022/03/16 06:30:25;;;;;;;20.40;7.30;;;;;;;-0.75;57.62;103387.88;5072791;28;20111;-66
2022/03/16 06:32:51;;;;;;;22.73;6.70;;;;;;;-0.62;57.90;103398.09;5073662;28;20287;-68
2022/03/16 06:35:17;;;;;;;30.10;8.43;;;;;;;-0.65;57.64;103402.50;5072831;28;20028;-67
2022/03/16 06:37:44;;;;;;;30.23;7.00;;;;;;;-0.67;56.80;103406.91;5072746;28;20028;-68
2022/03/16 06:40:14;;;;;;;27.77;8.40;;;;;;;-0.65;57.36;103411.22;5073443;28;20274;-68
2022/03/16 06:42:46;;;;;;;;;;;;;;;-0.62;57.27;103419.03;5073097;28;20251;-67
2022/03/16 06:45:12;;;;;;;23.07;7.33;;;;;;;-0.64;57.64;103406.84;5073864;28;19908;-66
2022/03/16 06:47:38;;;;;;;17.47;5.87;;;;;;;-0.56;56.40;103419.84;5073833;28;20259;-65
2022/03/16 06:50:06;;;;;;;20.87;8.40;;;;;;;-0.60;56.85;103419.00;5057158;28;20116;-68
2022/03/16 06:52:31;;;;;;;24.27;6.33;;;;;;;-0.50;57.44;103422.34;5038380;28;20641;-67
2022/03/16 06:54:57;;;;;;;21.20;7.07;;;;;;;-0.55;56.63;103409.34;5072316;28;20263;-69
2022/03/16 06:57:23;;;;;;;37.13;9.10;;;;;;;-0.42;56.16;103423.91;5072874;28;20058;-66
2022/03/16 06:59:48;;;;;;;18.53;8.10;;;;;;;-0.39;56.83;103418.63;5072682;28;20029;-66
2022/03/16 07:02:14;;;;;;;37.97;9.10;;;;;;;-0.22;56.56;103433.19;5054690;28;20220;-67
2022/03/16 07:04:39;;;;;;;20.90;7.70;;;;;;;-0.15;56.17;103426.94;5076477;28;20039;-73
2022/03/16 07:07:05;;;;;;;13.93;6.90;;;;;;;-0.22;56.18;103404.38;5057652;28;20020;-69
2022/03/16 07:09:32;;;;;;;20.07;7.27;;;;;;;-0.20;55.63;103415.69;5066564;28;20034;-61
2022/03/16 07:11:58;;;;;;;38.53;9.03;;;;;;;-0.13;56.38;103420.78;5072181;28;20028;-64
2022/03/16 07:14:31;;;;;;;22.23;7.40;;;;;;;-0.10;55.29;103435.56;5055238;28;20461;-63
2022/03/16 07:17:00;;;;;;;21.97;6.43;;;;;;;-0.06;55.95;103439.84;5075411;28;20275;-69
2022/03/16 07:19:26;;;;;;;;;;;;;;;-0.03;55.90;103450.28;5073536;28;20356;-66
2022/03/16 07:21:51;;;;;;;25.80;7.17;;;;;;;0.02;55.15;103453.69;5072186;28;20058;-66
2022/03/16 07:24:17;;;;;;;20.60;7.47;;;;;;;0.08;55.75;103445.72;5071858;28;20099;-68
2022/03/16 07:26:42;;;;;;;20.63;7.63;;;;;;;0.24;55.71;103457.59;5071958;28;20039;-70
2022/03/16 07:29:08;;;;;;;23.07;7.20;;;;;;;0.00;54.83;103413.56;5054140;28;20467;-76
2022/03/16 07:31:34;;;;;;;20.43;6.87;;;;;;;-0.15;54.64;103405.97;5071996;28;20048;-67
2022/03/16 07:34:00;;;;;;;22.70;7.40;;;;;;;-0.02;54.76;103431.03;5071743;28;20032;-70
2022/03/16 07:36:26;;;;;;;15.07;7.30;;;;;;;0.13;54.85;103433.38;5053696;28;20170;-67
2022/03/16 07:38:51;;;;;;;27.73;8.83;;;;;;;0.02;54.94;103413.53;5071502;28;20688;-64
2022/03/16 07:41:19;;;;;;;14.03;7.27;;;;;;;0.27;55.17;103447.06;5072003;28;20040;-68
2022/03/16 07:43:44;;;;;;;24.30;6.57;;;;;;;0.41;54.39;103456.41;5037717;28;20029;-65
2022/03/16 07:46:10;;;;;;;20.23;7.63;;;;;;;0.40;53.95;103452.06;5072546;28;20266;-67
2022/03/16 07:48:37;;;;;;;12.20;5.47;;;;;;;0.50;54.43;103448.34;5072329;28;20078;-68
2022/03/16 07:51:03;;;;;;;26.80;6.67;;;;;;;0.47;54.30;103438.78;5055237;28;20082;-68
2022/03/16 07:53:29;;;;;;;22.27;7.03;;;;;;;0.63;53.87;103456.84;5072262;28;20295;-66
2022/03/16 07:55:56;;;;;;;16.73;5.40;;;;;;;0.69;53.89;103470.69;5072409;28;20387;-66
2022/03/16 07:58:22;;;;;;;17.30;6.73;;;;;;;0.65;53.88;103469.03;5070628;28;20464;-63
2022/03/16 08:00:48;;;;;;;23.40;5.93;;;;;;;0.65;53.88;103465.53;5072043;28;20357;-68
2022/03/16 08:03:14;;;;;;;25.37;6.57;;;;;;;0.75;54.23;103459.19;5071771;28;20374;-69
2022/03/16 08:05:39;;;;;;;20.20;7.20;;;;;;;0.89;53.69;103462.38;5071415;28;20028;-69
2022/03/16 08:08:05;;;;;;;20.67;6.33;;;;;;;1.00;54.25;103472.63;5071260;28;20034;-71
2022/03/16 08:10:31;;;;;;;15.50;7.57;;;;;;;1.12;53.41;103453.97;5053430;28;20460;-64
2022/03/16 08:13:01;;;;;;;22.97;8.47;;;;;;;1.13;53.03;103448.66;5053023;28;20055;-61
2022/03/16 08:15:27;;;;;;;22.00;7.63;;;;;;;1.38;52.37;103469.94;5071387;28;20035;-62
2022/03/16 08:17:52;;;;;;;20.20;6.80;;;;;;;1.45;52.68;103471.56;5071512;28;20251;-64
2022/03/16 08:20:18;;;;;;;31.87;8.33;;;;;;;1.41;52.52;103437.50;5071847;28;20360;-72
2022/03/16 08:22:43;;;;;;;23.27;9.27;;;;;;;1.82;52.42;103468.84;5071234;28;20025;-64
2022/03/16 08:25:12;;;;;;;27.83;8.43;;;;;;;1.89;51.67;103466.91;5071286;28;20159;-63
2022/03/16 08:27:39;;;;;;;26.45;7.50;;;;;;;1.97;52.30;103475.44;5071307;28;20089;-66
2022/03/16 08:30:07;;;;;;;16.83;8.80;;;;;;;1.86;52.19;103433.69;5071149;28;20032;-63
2022/03/16 08:32:32;;;;;;;32.63;12.10;;;;;;;2.09;51.30;103467.25;5072812;28;20289;-62
2022/03/16 08:34:58;;;;;;;26.40;10.67;;;;;;;2.09;51.36;103461.13;5074906;28;20650;-62
2022/03/16 08:37:24;;;;;;;26.37;10.03;;;;;;;2.19;51.43;103470.47;5075008;28;20174;-64
2022/03/16 08:39:51;;;;;;;23.53;7.70;;;;;;;2.18;50.92;103472.25;5074961;28;20421;-66
2022/03/16 08:42:17;;;;;;;24.17;7.93;;;;;;;2.28;51.21;103471.97;5074915;28;20789;-64
2022/03/16 08:44:43;;;;;;;20.43;8.67;;;;;;;2.16;50.71;103455.66;5074886;28;20308;-67
2022/03/16 08:47:20;;;;;;;21.37;8.77;;;;;;;2.09;51.28;103445.34;5074949;28;20316;-67
2022/03/16 08:49:47;;;;;;;25.87;7.83;;;;;;;2.08;51.30;103462.91;5056424;28;20271;-66
2022/03/16 08:52:12;;;;;;;20.83;8.00;;;;;;;2.29;51.60;103481.59;5074654;28;20725;-65
2022/03/16 08:54:40;;;;;;;20.70;8.50;;;;;;;2.46;50.88;103487.25;5074692;28;20301;-61
2022/03/16 08:57:08;;;;;;;29.80;8.33;;;;;;;2.49;50.55;103472.25;5056563;28;20460;-64
2022/03/16 08:59:34;;;;;;;17.45;8.70;;;;;;;2.66;50.22;103479.66;5075047;28;20261;-63
2022/03/16 09:02:00;;;;;;;25.70;10.17;;;;;;;2.72;49.80;103490.00;5074930;28;20472;-69
2022/03/16 09:04:26;;;;;;;29.07;8.03;;;;;;;2.58;49.81;103471.09;5056255;28;20277;-61
2022/03/16 09:06:51;;;;;;;23.33;8.40;;;;;;;2.60;49.39;103473.69;5074391;28;20535;-65
2022/03/16 09:09:16;;;;;;;22.03;9.57;;;;;;;2.59;50.37;103471.97;5074701;28;20080;-63
2022/03/16 09:11:42;;;;;;;19.50;10.10;;;;;;;2.51;50.05;103459.03;5074298;28;20051;-63
2022/03/16 09:14:09;;;;;;;27.87;7.63;;;;;;;2.72;49.90;103481.25;5074790;28;20040;-67
2022/03/16 09:16:34;;;;;;;21.13;8.47;;;;;;;2.75;49.75;103483.78;5075388;28;20032;-66
2022/03/16 09:19:00;;;;;;;18.63;7.87;;;;;;;2.83;49.35;103496.69;5057215;28;20422;-66
2022/03/16 09:21:26;;;;;;;25.23;9.30;;;;;;;2.88;49.28;103494.78;5073781;28;20028;-65
2022/03/16 09:23:53;;;;;;;32.27;8.73;;;;;;;2.52;50.15;103425.69;5073996;28;20025;-64
2022/03/16 09:26:21;;;;;;;27.60;9.27;;;;;;;2.99;49.32;103493.56;5073960;28;20313;-65
2022/03/16 09:28:47;;;;;;;17.67;9.40;;;;;;;2.75;48.92;103460.94;5073836;28;20263;-62
2022/03/16 09:31:12;;;;;;;25.80;8.30;;;;;;;3.03;49.43;103510.13;5074088;28;20316;-74
2022/03/16 09:33:38;;;;;;;26.30;9.47;;;;;;;3.00;49.63;103511.09;5074482;28;20036;-72
2022/03/16 09:36:08;;;;;;;26.20;9.43;;;;;;;2.84;49.11;103508.94;5074136;28;20024;-76
2022/03/16 09:38:34;;;;;;;24.33;9.03;;;;;;;2.83;49.60;103504.59;5073359;28;20494;-64
2022/03/16 09:41:01;;;;;;;26.40;9.23;;;;;;;2.80;49.70;103498.50;5073783;28;20633;-62
2022/03/16 09:43:32;;;;;;;13.93;8.47;;;;;;;2.98;49.55;103523.44;5072975;28;20305;-67
2022/03/16 09:46:06;;;;;;;27.80;9.77;;;;;;;3.07;49.58;103519.66;5073430;28;20295;-67
2022/03/16 09:48:32;;;;;;;25.53;9.07;;;;;;;3.20;49.42;103525.41;5073649;28;20300;-69
2022/03/16 09:50:58;;;;;;;33.00;10.97;;;;;;;2.99;49.19;103469.88;5073711;28;20797;-66
2022/03/16 09:53:28;;;;;;;29.50;16.10;;;;;;;3.26;49.08;103504.16;5073139;28;20055;-62
2022/03/16 09:55:55;;;;;;;29.63;10.20;;;;;;;3.35;48.85;103507.34;5055489;28;20049;-62
2022/03/16 09:58:21;;;;;;;24.13;9.47;;;;;;;3.43;48.50;103526.41;5073028;28;20259;-66
2022/03/16 10:00:48;;;;;;;30.20;10.43;;;;;;;3.48;48.64;103530.69;5072779;28;20399;-66
2022/03/16 10:03:15;;;;;;;27.00;9.47;;;;;;;3.43;47.99;103531.66;5072944;28;20611;-69
2022/03/16 10:05:41;;;;;;;23.47;8.57;;;;;;;3.59;48.61;103544.38;5072836;28;20259;-65
2022/03/16 10:08:08;;;;;;;20.17;9.33;;;;;;;3.77;48.23;103546.41;5073594;28;20297;-69
2022/03/16 10:13:21;;;;;;;33.53;10.70;;;;;;;3.73;47.21;103499.94;5072196;28;20309;-71
2022/03/16 10:15:50;;;;;;;23.17;8.80;;;;;;;4.00;47.19;103549.13;5072882;28;20271;-61
2022/03/16 10:18:19;;;;;;;30.77;10.18;;;;;;;3.99;47.61;103526.28;5073473;28;20286;-67
2022/03/16 10:20:45;;;;;;;22.53;9.00;;;;;;;4.20;47.03;103551.06;5074973;28;20029;-68
2022/03/16 10:23:17;;;;;;;41.37;9.33;;;;;;;4.22;47.06;103545.75;5055609;28;20251;-66
2022/03/16 10:25:51;;;;;;;26.73;9.27;;;;;;;4.14;47.25;103545.16;5072718;28;20595;-64
2022/03/16 10:28:19;;;;;;;27.83;10.90;;;;;;;4.22;46.65;103551.03;5072754;28;20313;-63
2022/03/16 10:30:55;;;;;;;17.73;6.95;;;;;;;4.30;46.75;103541.06;5072811;28;20266;-64
2022/03/16 10:33:22;;;;;;;20.00;7.90;;;;;;;4.29;46.42;103537.56;5073414;28;20085;-65
2022/03/16 10:36:07;;;;;;;20.73;8.33;;;;;;;4.42;45.41;103552.97;5074560;28;20825;-66
2022/03/16 10:38:42;;;;;;;24.33;10.00;;;;;;;4.29;45.45;103534.91;5076231;28;20290;-70
2022/03/16 10:41:14;;;;;;;19.97;7.83;;;;;;;4.46;45.64;103558.06;5072747;28;20663;-66
2022/03/16 10:46:34;;;;;;;17.87;8.17;;;;;;;4.74;45.29;103562.34;5072255;28;20255;-67
2022/03/16 10:49:01;;;;;;;23.93;12.33;;;;;;;5.02;45.32;103552.47;5072082;28;20780;-66
2022/03/16 10:51:27;;;;;;;20.53;9.60;;;;;;;4.57;44.66;103482.00;5072009;28;20266;-66
2022/03/16 10:53:53;;;;;;;17.57;8.23;;;;;;;4.88;44.94;103554.78;5071990;28;20291;-65
2022/03/16 10:56:20;;;;;;;19.67;7.97;;;;;;;4.80;44.78;103539.22;5071932;28;20476;-64
2022/03/16 10:58:46;;;;;;;18.43;7.53;;;;;;;4.94;45.16;103559.84;5071946;28;20258;-65
2022/03/16 11:01:14;;;;;;;22.77;8.63;;;;;;;5.01;44.69;103552.53;5071975;28;20347;-65
2022/03/16 11:03:43;;;;;;;27.55;8.23;;;;;;;4.92;44.38;103540.56;5072257;28;20725;-66
2022/03/16 11:06:09;;;;;;;16.97;7.60;;;;;;;4.88;44.64;103550.34;5053852;28;20028;-67
2022/03/16 11:08:37;;;;;;;22.97;9.93;;;;;;;4.95;44.46;103543.09;5071996;28;20262;-65
2022/03/16 11:13:28;;;;;;;23.27;7.37;;;;;;;5.13;43.28;103550.28;5071843;28;20270;-67
2022/03/16 11:13:57;;;;;;;16.37;8.23;;;;;;;5.10;44.26;103560.97;5071408;28;20342;-65
2022/03/16 11:16:25;;;;;;;14.57;7.27;;;;;;;5.07;44.49;103554.94;5053754;28;20847;-65
2022/03/16 11:18:51;;;;;;;12.13;6.57;;;;;;;4.89;44.32;103543.28;5071385;28;20262;-64
2022/03/16 11:21:23;;;;;;;23.73;8.10;;;;;;;4.96;44.48;103568.56;5072178;28;20308;-67
2022/03/16 11:26:45;;;;;;;13.83;7.60;;;;;;;4.75;44.11;103537.69;5072480;28;20263;-66
2022/03/16 11:29:20;;;;;;;21.95;6.57;;;;;;;5.00;44.50;103569.31;5072199;28;20255;-64